This is the latest recevied weather packets stored in our database for station/object CRYC. If no packets are shown the sender has not sent any weather packets the latest 10 day(s).
| Time | Temp. | Humidity | Pressure | Rain* | Wind** | Luminosity | Snow |
|---|---|---|---|---|---|---|---|
| 1778023878 | 23.33° C | - | - | 0 mm | 0 m/s | - | - |
| 1778022671 | 23.89° C | - | - | 0 mm | 0.45 m/s, 180° | - | - |
| 1778022066 | 24.44° C | - | - | 0 mm | 1.34 m/s, 252° | - | - |
| 1778021479 | 24.44° C | - | - | 0 mm | 1.34 m/s, 148° | - | - |
| 1778020857 | 25° C | - | - | 0 mm | 3.13 m/s, 191° | - | - |
| 1778020253 | 25.56° C | - | - | 0 mm | 2.24 m/s, 212° | - | - |
| 1778019649 | 26.11° C | - | - | 0 mm | 0.45 m/s, 252° | - | - |
| 1778019045 | 26.67° C | - | - | 0 mm | 0.89 m/s, 240° | - | - |
| 1778018440 | 26.67° C | - | - | 0 mm | 5.81 m/s, 257° | - | - |
| 1778017835 | 27.22° C | - | - | 0 mm | 0.45 m/s, 177° | - | - |
| 1778017231 | 27.78° C | - | - | 0 mm | 4.47 m/s, 240° | - | - |
| 1778016626 | 28.33° C | - | - | 0 mm | 4.92 m/s, 205° | - | - |
| 1778016020 | 28.89° C | - | - | 0 mm | 5.36 m/s, 252° | - | - |
| 1778015416 | 28.89° C | - | - | 0 mm | 3.58 m/s, 257° | - | - |
| 1778014812 | 28.89° C | - | - | 0 mm | 4.92 m/s, 191° | - | - |
| 1778014209 | 28.89° C | - | - | 0 mm | 6.71 m/s, 224° | - | - |
| 1778012998 | 28.33° C | - | - | 0 mm | 4.02 m/s, 24° | - | - |
| 1778012393 | 28.33° C | - | - | 0 mm | 8.94 m/s, 249° | - | - |
| 1778011788 | 28.33° C | - | - | 0 mm | 4.92 m/s, 236° | - | - |
| 1778011183 | 29.44° C | - | - | 0 mm | 2.24 m/s, 252° | - | - |
| 1778010579 | 29.44° C | - | - | 0 mm | 6.26 m/s, 255° | - | - |
| 1778009974 | 28.89° C | - | - | 0 mm | 5.36 m/s, 235° | - | - |
| 1778009372 | 29.44° C | - | - | 0 mm | 3.58 m/s, 249° | - | - |
| 1778008766 | 28.89° C | - | - | 0 mm | 4.47 m/s, 267° | - | - |
| 1778008161 | 28.89° C | - | - | 0 mm | 3.58 m/s, 250° | - | - |
* Rain latest hour (hover to see other rain measurements)
** Current wind speed in m/s (hover to see current wind gust speed)